Augusta, Kentucky
Current Conditions -  °F | °C
As of 6:55 AM on Saturday 01 Nov 2014 (Local Time) from KFGX Reporting Station
Overcast Overcast  
Wind Chill: 25°   Ceiling: 1000
Heat Index: 34°   Visibility: 7mi
Dew Point: 32°   Wind: 13mph
Humidity: 93%   Direction: 340°NNW
Pressure: 30.07"   Gusts: 22mph
Location:  38.77°N, 84.01°W
Report Text: KFGX 011055Z AUTO 34011G19KT 7SM OVC010 01/00 A3007 RMK AO2 T00100000
Loading
Personal Weather Stations






























Interactive Weather Map
Tropical Storm Tracking
New forecast layout! Learn more

10-Day Weather Forecast

Advertisements
Track Severe Weather on mobile